sensor_id;sensor_type;location;lat;lon;timestamp;P1;durP1;ratioP1;P2;durP2;ratioP2
39740;SDS011;25426;53.478;10.190;2023-02-15T00:02:21;315.95;;;73.95;;
39740;SDS011;25426;53.478;10.190;2023-02-15T00:04:54;347.67;;;76.82;;
39740;SDS011;25426;53.478;10.190;2023-02-15T00:07:26;241.00;;;70.25;;
39740;SDS011;25426;53.478;10.190;2023-02-15T00:09:56;264.58;;;71.13;;
39740;SDS011;25426;53.478;10.190;2023-02-15T00:12:27;252.38;;;71.93;;
39740;SDS011;25426;53.478;10.190;2023-02-15T00:14:58;271.27;;;73.88;;
39740;SDS011;25426;53.478;10.190;2023-02-15T00:17:29;277.50;;;75.05;;
39740;SDS011;25426;53.478;10.190;2023-02-15T00:20:00;473.35;;;87.57;;
39740;SDS011;25426;53.478;10.190;2023-02-15T00:22:31;499.13;;;91.28;;
39740;SDS011;25426;53.478;10.190;2023-02-15T00:25:02;310.92;;;78.00;;
39740;SDS011;25426;53.478;10.190;2023-02-15T00:27:34;482.75;;;91.07;;
39740;SDS011;25426;53.478;10.190;2023-02-15T00:30:06;319.27;;;79.95;;
39740;SDS011;25426;53.478;10.190;2023-02-15T00:32:38;239.55;;;72.03;;
39740;SDS011;25426;53.478;10.190;2023-02-15T00:35:08;468.27;;;89.25;;
39740;SDS011;25426;53.478;10.190;2023-02-15T00:37:40;367.10;;;80.15;;
39740;SDS011;25426;53.478;10.190;2023-02-15T00:40:11;235.27;;;71.68;;
39740;SDS011;25426;53.478;10.190;2023-02-15T00:42:42;301.02;;;74.28;;
39740;SDS011;25426;53.478;10.190;2023-02-15T00:45:13;347.27;;;77.30;;
39740;SDS011;25426;53.478;10.190;2023-02-15T00:47:44;488.58;;;89.07;;
39740;SDS011;25426;53.478;10.190;2023-02-15T00:50:15;362.98;;;79.55;;
39740;SDS011;25426;53.478;10.190;2023-02-15T00:52:46;416.48;;;83.88;;
39740;SDS011;25426;53.478;10.190;2023-02-15T00:55:17;287.95;;;71.93;;
39740;SDS011;25426;53.478;10.190;2023-02-15T00:57:48;302.20;;;74.10;;
39740;SDS011;25426;53.478;10.190;2023-02-15T01:00:19;482.52;;;88.65;;
39740;SDS011;25426;53.478;10.190;2023-02-15T01:02:50;391.30;;;81.55;;
39740;SDS011;25426;53.478;10.190;2023-02-15T01:05:21;327.27;;;77.70;;
39740;SDS011;25426;53.478;10.190;2023-02-15T01:07:52;345.98;;;81.72;;
39740;SDS011;25426;53.478;10.190;2023-02-15T01:10:23;257.17;;;70.38;;
39740;SDS011;25426;53.478;10.190;2023-02-15T01:12:54;338.90;;;82.22;;
39740;SDS011;25426;53.478;10.190;2023-02-15T01:15:25;337.13;;;76.95;;
39740;SDS011;25426;53.478;10.190;2023-02-15T01:17:56;462.30;;;81.95;;
39740;SDS011;25426;53.478;10.190;2023-02-15T01:20:28;488.83;;;86.63;;
39740;SDS011;25426;53.478;10.190;2023-02-15T01:23:00;469.45;;;89.30;;
39740;SDS011;25426;53.478;10.190;2023-02-15T01:25:32;333.95;;;76.47;;
39740;SDS011;25426;53.478;10.190;2023-02-15T01:28:05;299.58;;;69.93;;
39740;SDS011;25426;53.478;10.190;2023-02-15T01:30:36;242.02;;;69.65;;
39740;SDS011;25426;53.478;10.190;2023-02-15T01:33:07;394.48;;;76.10;;
39740;SDS011;25426;53.478;10.190;2023-02-15T01:35:47;212.52;;;65.82;;
39740;SDS011;25426;53.478;10.190;2023-02-15T01:38:18;424.10;;;80.28;;
39740;SDS011;25426;53.478;10.190;2023-02-15T01:40:52;449.88;;;80.45;;
39740;SDS011;25426;53.478;10.190;2023-02-15T01:43:27;332.02;;;69.95;;
39740;SDS011;25426;53.478;10.190;2023-02-15T01:46:19;282.40;;;67.75;;
39740;SDS011;25426;53.478;10.190;2023-02-15T01:49:03;266.90;;;65.25;;
39740;SDS011;25426;53.478;10.190;2023-02-15T01:51:49;433.80;;;76.60;;
39740;SDS011;25426;53.478;10.190;2023-02-15T01:54:27;420.58;;;75.50;;
39740;SDS011;25426;53.478;10.190;2023-02-15T01:57:03;357.45;;;69.95;;
39740;SDS011;25426;53.478;10.190;2023-02-15T01:59:39;331.80;;;69.55;;
39740;SDS011;25426;53.478;10.190;2023-02-15T02:02:16;414.85;;;74.47;;
39740;SDS011;25426;53.478;10.190;2023-02-15T02:04:51;337.85;;;69.30;;
39740;SDS011;25426;53.478;10.190;2023-02-15T02:07:27;339.35;;;67.15;;
39740;SDS011;25426;53.478;10.190;2023-02-15T02:09:59;301.63;;;67.47;;
39740;SDS011;25426;53.478;10.190;2023-02-15T02:12:33;427.40;;;77.22;;
39740;SDS011;25426;53.478;10.190;2023-02-15T02:15:05;435.98;;;75.18;;
39740;SDS011;25426;53.478;10.190;2023-02-15T02:20:52;319.02;;;67.10;;
39740;SDS011;25426;53.478;10.190;2023-02-15T02:24:00;502.15;;;83.05;;
39740;SDS011;25426;53.478;10.190;2023-02-15T02:27:21;203.75;;;57.40;;
39740;SDS011;25426;53.478;10.190;2023-02-15T02:30:15;437.10;;;75.45;;
39740;SDS011;25426;53.478;10.190;2023-02-15T02:36:40;517.97;;;83.25;;
39740;SDS011;25426;53.478;10.190;2023-02-15T02:39:55;250.07;;;59.97;;
39740;SDS011;25426;53.478;10.190;2023-02-15T02:43:05;293.08;;;64.30;;
39740;SDS011;25426;53.478;10.190;2023-02-15T02:46:08;315.95;;;66.07;;
39740;SDS011;25426;53.478;10.190;2023-02-15T02:48:52;567.92;;;86.80;;
39740;SDS011;25426;53.478;10.190;2023-02-15T02:51:23;244.77;;;58.97;;
39740;SDS011;25426;53.478;10.190;2023-02-15T02:53:55;348.48;;;65.93;;
39740;SDS011;25426;53.478;10.190;2023-02-15T02:56:40;288.85;;;64.07;;
39740;SDS011;25426;53.478;10.190;2023-02-15T02:59:20;247.52;;;58.65;;
39740;SDS011;25426;53.478;10.190;2023-02-15T03:04:45;320.23;;;62.72;;
39740;SDS011;25426;53.478;10.190;2023-02-15T03:07:28;215.98;;;55.80;;
39740;SDS011;25426;53.478;10.190;2023-02-15T03:10:03;265.35;;;56.92;;
39740;SDS011;25426;53.478;10.190;2023-02-15T03:12:37;267.70;;;57.72;;
39740;SDS011;25426;53.478;10.190;2023-02-15T03:15:15;460.25;;;72.53;;
39740;SDS011;25426;53.478;10.190;2023-02-15T03:17:55;288.10;;;60.58;;
39740;SDS011;25426;53.478;10.190;2023-02-15T03:20:30;238.88;;;55.40;;
39740;SDS011;25426;53.478;10.190;2023-02-15T03:23:16;321.35;;;60.22;;
39740;SDS011;25426;53.478;10.190;2023-02-15T03:25:53;294.38;;;58.42;;
39740;SDS011;25426;53.478;10.190;2023-02-15T03:28:41;359.92;;;61.53;;
39740;SDS011;25426;53.478;10.190;2023-02-15T03:31:15;463.48;;;68.55;;
39740;SDS011;25426;53.478;10.190;2023-02-15T03:33:53;381.00;;;64.93;;
39740;SDS011;25426;53.478;10.190;2023-02-15T03:36:36;202.02;;;49.25;;
39740;SDS011;25426;53.478;10.190;2023-02-15T03:39:53;483.95;;;68.88;;
39740;SDS011;25426;53.478;10.190;2023-02-15T03:42:51;360.10;;;61.33;;
39740;SDS011;25426;53.478;10.190;2023-02-15T03:45:36;260.65;;;53.05;;
39740;SDS011;25426;53.478;10.190;2023-02-15T03:48:08;343.40;;;56.95;;
39740;SDS011;25426;53.478;10.190;2023-02-15T03:50:39;339.67;;;59.92;;
39740;SDS011;25426;53.478;10.190;2023-02-15T03:53:30;239.80;;;50.33;;
39740;SDS011;25426;53.478;10.190;2023-02-15T03:56:01;309.60;;;54.03;;
39740;SDS011;25426;53.478;10.190;2023-02-15T03:58:32;281.92;;;52.40;;
39740;SDS011;25426;53.478;10.190;2023-02-15T04:01:25;204.43;;;45.83;;
39740;SDS011;25426;53.478;10.190;2023-02-15T04:07:16;255.98;;;51.70;;
39740;SDS011;25426;53.478;10.190;2023-02-15T04:09:47;260.63;;;53.40;;
39740;SDS011;25426;53.478;10.190;2023-02-15T04:12:37;254.70;;;48.75;;
39740;SDS011;25426;53.478;10.190;2023-02-15T04:15:11;227.25;;;48.00;;
39740;SDS011;25426;53.478;10.190;2023-02-15T04:18:04;274.30;;;50.75;;
39740;SDS011;25426;53.478;10.190;2023-02-15T04:20:35;184.43;;;46.77;;
39740;SDS011;25426;53.478;10.190;2023-02-15T04:23:24;177.87;;;44.03;;
39740;SDS011;25426;53.478;10.190;2023-02-15T04:26:14;298.45;;;52.10;;
39740;SDS011;25426;53.478;10.190;2023-02-15T04:28:45;194.50;;;44.80;;
39740;SDS011;25426;53.478;10.190;2023-02-15T04:31:16;256.83;;;48.95;;
39740;SDS011;25426;53.478;10.190;2023-02-15T04:33:47;136.75;;;40.28;;
39740;SDS011;25426;53.478;10.190;2023-02-15T04:36:18;216.05;;;45.08;;
39740;SDS011;25426;53.478;10.190;2023-02-15T04:38:49;200.20;;;45.45;;
39740;SDS011;25426;53.478;10.190;2023-02-15T04:41:20;257.65;;;51.13;;
39740;SDS011;25426;53.478;10.190;2023-02-15T04:43:51;289.40;;;51.95;;
39740;SDS011;25426;53.478;10.190;2023-02-15T04:46:22;203.90;;;45.40;;
39740;SDS011;25426;53.478;10.190;2023-02-15T04:48:53;195.38;;;43.75;;
39740;SDS011;25426;53.478;10.190;2023-02-15T04:51:25;198.25;;;42.55;;
39740;SDS011;25426;53.478;10.190;2023-02-15T04:53:56;270.65;;;50.97;;
39740;SDS011;25426;53.478;10.190;2023-02-15T04:56:27;202.85;;;45.53;;
39740;SDS011;25426;53.478;10.190;2023-02-15T04:59:00;235.07;;;44.20;;
39740;SDS011;25426;53.478;10.190;2023-02-15T05:01:31;130.83;;;42.00;;
39740;SDS011;25426;53.478;10.190;2023-02-15T05:04:02;297.98;;;53.08;;
39740;SDS011;25426;53.478;10.190;2023-02-15T05:06:33;312.17;;;54.72;;
39740;SDS011;25426;53.478;10.190;2023-02-15T05:09:04;225.33;;;47.00;;
39740;SDS011;25426;53.478;10.190;2023-02-15T05:11:35;172.83;;;41.00;;
39740;SDS011;25426;53.478;10.190;2023-02-15T05:14:06;223.60;;;45.67;;
39740;SDS011;25426;53.478;10.190;2023-02-15T05:16:37;235.70;;;42.33;;
39740;SDS011;25426;53.478;10.190;2023-02-15T05:19:08;168.50;;;41.45;;
39740;SDS011;25426;53.478;10.190;2023-02-15T05:21:39;128.30;;;38.43;;
39740;SDS011;25426;53.478;10.190;2023-02-15T05:24:10;287.08;;;50.25;;
39740;SDS011;25426;53.478;10.190;2023-02-15T05:26:59;229.70;;;43.70;;
39740;SDS011;25426;53.478;10.190;2023-02-15T05:29:49;238.40;;;45.83;;
39740;SDS011;25426;53.478;10.190;2023-02-15T05:32:20;331.90;;;53.35;;
39740;SDS011;25426;53.478;10.190;2023-02-15T05:34:51;226.52;;;41.70;;
39740;SDS011;25426;53.478;10.190;2023-02-15T05:37:22;272.02;;;49.15;;
39740;SDS011;25426;53.478;10.190;2023-02-15T05:39:53;295.67;;;50.47;;
39740;SDS011;25426;53.478;10.190;2023-02-15T05:42:24;278.55;;;48.47;;
39740;SDS011;25426;53.478;10.190;2023-02-15T05:44:55;382.03;;;53.40;;
39740;SDS011;25426;53.478;10.190;2023-02-15T05:47:26;369.35;;;55.08;;
39740;SDS011;25426;53.478;10.190;2023-02-15T05:49:57;291.80;;;50.47;;
39740;SDS011;25426;53.478;10.190;2023-02-15T05:52:28;259.55;;;46.78;;
39740;SDS011;25426;53.478;10.190;2023-02-15T05:54:59;160.10;;;37.58;;
39740;SDS011;25426;53.478;10.190;2023-02-15T05:57:30;138.47;;;37.83;;
39740;SDS011;25426;53.478;10.190;2023-02-15T06:00:02;294.13;;;47.83;;
39740;SDS011;25426;53.478;10.190;2023-02-15T06:02:41;159.00;;;38.10;;
39740;SDS011;25426;53.478;10.190;2023-02-15T06:05:12;319.98;;;51.97;;
39740;SDS011;25426;53.478;10.190;2023-02-15T06:07:43;325.40;;;46.90;;
39740;SDS011;25426;53.478;10.190;2023-02-15T06:10:15;355.23;;;51.33;;
39740;SDS011;25426;53.478;10.190;2023-02-15T06:12:46;274.67;;;47.78;;
39740;SDS011;25426;53.478;10.190;2023-02-15T06:15:16;271.70;;;44.17;;
39740;SDS011;25426;53.478;10.190;2023-02-15T06:17:47;204.90;;;39.83;;
39740;SDS011;25426;53.478;10.190;2023-02-15T06:20:21;209.40;;;42.40;;
39740;SDS011;25426;53.478;10.190;2023-02-15T06:22:52;232.60;;;42.77;;
39740;SDS011;25426;53.478;10.190;2023-02-15T06:25:23;217.50;;;40.85;;
39740;SDS011;25426;53.478;10.190;2023-02-15T06:27:54;293.33;;;48.33;;
39740;SDS011;25426;53.478;10.190;2023-02-15T06:30:25;174.00;;;39.50;;
39740;SDS011;25426;53.478;10.190;2023-02-15T06:32:56;287.03;;;47.40;;
39740;SDS011;25426;53.478;10.190;2023-02-15T06:35:27;250.77;;;42.00;;
39740;SDS011;25426;53.478;10.190;2023-02-15T06:37:58;257.07;;;44.27;;
39740;SDS011;25426;53.478;10.190;2023-02-15T06:40:29;314.97;;;49.60;;
39740;SDS011;25426;53.478;10.190;2023-02-15T06:43:00;284.53;;;48.00;;
39740;SDS011;25426;53.478;10.190;2023-02-15T06:45:31;317.50;;;48.60;;
39740;SDS011;25426;53.478;10.190;2023-02-15T06:48:02;188.63;;;40.13;;
39740;SDS011;25426;53.478;10.190;2023-02-15T06:50:33;214.13;;;40.05;;
39740;SDS011;25426;53.478;10.190;2023-02-15T06:53:04;186.38;;;39.53;;
39740;SDS011;25426;53.478;10.190;2023-02-15T06:55:35;198.63;;;39.47;;
39740;SDS011;25426;53.478;10.190;2023-02-15T06:58:06;284.70;;;46.13;;
39740;SDS011;25426;53.478;10.190;2023-02-15T07:00:37;190.23;;;40.30;;
39740;SDS011;25426;53.478;10.190;2023-02-15T07:03:08;307.17;;;44.93;;
39740;SDS011;25426;53.478;10.190;2023-02-15T07:05:39;140.27;;;35.67;;
39740;SDS011;25426;53.478;10.190;2023-02-15T07:08:10;141.73;;;36.00;;
39740;SDS011;25426;53.478;10.190;2023-02-15T07:10:43;160.20;;;36.83;;
39740;SDS011;25426;53.478;10.190;2023-02-15T07:13:14;168.98;;;37.45;;
39740;SDS011;25426;53.478;10.190;2023-02-15T07:15:47;261.67;;;43.67;;
39740;SDS011;25426;53.478;10.190;2023-02-15T07:18:19;156.93;;;35.93;;
39740;SDS011;25426;53.478;10.190;2023-02-15T07:20:51;101.73;;;31.03;;
39740;SDS011;25426;53.478;10.190;2023-02-15T07:23:22;222.13;;;40.55;;
39740;SDS011;25426;53.478;10.190;2023-02-15T07:25:58;298.00;;;45.08;;
39740;SDS011;25426;53.478;10.190;2023-02-15T07:28:30;266.60;;;42.40;;
39740;SDS011;25426;53.478;10.190;2023-02-15T07:31:04;274.40;;;43.28;;
39740;SDS011;25426;53.478;10.190;2023-02-15T07:33:36;163.52;;;35.28;;
39740;SDS011;25426;53.478;10.190;2023-02-15T07:36:07;198.87;;;39.00;;
39740;SDS011;25426;53.478;10.190;2023-02-15T07:38:42;250.27;;;43.47;;
39740;SDS011;25426;53.478;10.190;2023-02-15T07:41:14;173.07;;;34.83;;
39740;SDS011;25426;53.478;10.190;2023-02-15T07:43:45;126.53;;;33.70;;
39740;SDS011;25426;53.478;10.190;2023-02-15T07:46:16;135.00;;;34.92;;
39740;SDS011;25426;53.478;10.190;2023-02-15T07:48:47;110.60;;;33.77;;
39740;SDS011;25426;53.478;10.190;2023-02-15T07:51:19;160.02;;;35.88;;
39740;SDS011;25426;53.478;10.190;2023-02-15T07:53:50;265.70;;;45.40;;
39740;SDS011;25426;53.478;10.190;2023-02-15T07:56:21;225.23;;;39.90;;
39740;SDS011;25426;53.478;10.190;2023-02-15T07:58:52;146.38;;;34.22;;
39740;SDS011;25426;53.478;10.190;2023-02-15T08:01:35;160.43;;;36.40;;
39740;SDS011;25426;53.478;10.190;2023-02-15T08:04:08;197.43;;;38.07;;
39740;SDS011;25426;53.478;10.190;2023-02-15T08:06:40;162.60;;;35.60;;
39740;SDS011;25426;53.478;10.190;2023-02-15T08:09:11;165.45;;;34.28;;
39740;SDS011;25426;53.478;10.190;2023-02-15T08:11:42;235.40;;;41.60;;
39740;SDS011;25426;53.478;10.190;2023-02-15T08:14:15;116.65;;;38.53;;
39740;SDS011;25426;53.478;10.190;2023-02-15T08:16:53;121.93;;;33.80;;
39740;SDS011;25426;53.478;10.190;2023-02-15T08:19:26;182.73;;;41.70;;
39740;SDS011;25426;53.478;10.190;2023-02-15T08:22:01;161.63;;;39.78;;
39740;SDS011;25426;53.478;10.190;2023-02-15T08:24:37;139.80;;;34.88;;
39740;SDS011;25426;53.478;10.190;2023-02-15T08:27:09;148.55;;;33.47;;
39740;SDS011;25426;53.478;10.190;2023-02-15T08:29:41;87.43;;;29.25;;
39740;SDS011;25426;53.478;10.190;2023-02-15T08:32:12;107.93;;;32.42;;
39740;SDS011;25426;53.478;10.190;2023-02-15T08:34:43;116.43;;;31.87;;
39740;SDS011;25426;53.478;10.190;2023-02-15T08:37:14;96.28;;;31.90;;
39740;SDS011;25426;53.478;10.190;2023-02-15T08:39:45;215.13;;;41.13;;
39740;SDS011;25426;53.478;10.190;2023-02-15T08:42:16;144.73;;;34.55;;
39740;SDS011;25426;53.478;10.190;2023-02-15T08:44:47;99.13;;;30.55;;
39740;SDS011;25426;53.478;10.190;2023-02-15T08:47:20;87.70;;;32.85;;
39740;SDS011;25426;53.478;10.190;2023-02-15T08:49:51;84.03;;;31.73;;
39740;SDS011;25426;53.478;10.190;2023-02-15T08:52:22;144.70;;;37.53;;
39740;SDS011;25426;53.478;10.190;2023-02-15T08:54:53;157.52;;;38.17;;
39740;SDS011;25426;53.478;10.190;2023-02-15T08:57:25;85.80;;;31.73;;
39740;SDS011;25426;53.478;10.190;2023-02-15T08:59:55;97.90;;;29.77;;
39740;SDS011;25426;53.478;10.190;2023-02-15T09:02:26;114.70;;;33.43;;
39740;SDS011;25426;53.478;10.190;2023-02-15T09:04:57;79.17;;;33.33;;
39740;SDS011;25426;53.478;10.190;2023-02-15T09:07:28;131.32;;;36.50;;
39740;SDS011;25426;53.478;10.190;2023-02-15T09:10:00;150.95;;;36.22;;
39740;SDS011;25426;53.478;10.190;2023-02-15T09:12:31;83.93;;;32.47;;
39740;SDS011;25426;53.478;10.190;2023-02-15T09:15:02;131.60;;;35.40;;
39740;SDS011;25426;53.478;10.190;2023-02-15T09:17:33;87.10;;;32.22;;
39740;SDS011;25426;53.478;10.190;2023-02-15T09:20:04;132.40;;;35.05;;
39740;SDS011;25426;53.478;10.190;2023-02-15T09:22:36;73.05;;;31.35;;
39740;SDS011;25426;53.478;10.190;2023-02-15T09:25:07;108.50;;;30.40;;
39740;SDS011;25426;53.478;10.190;2023-02-15T09:27:38;102.32;;;29.88;;
39740;SDS011;25426;53.478;10.190;2023-02-15T09:30:09;132.02;;;33.22;;
39740;SDS011;25426;53.478;10.190;2023-02-15T09:32:41;74.67;;;31.73;;
39740;SDS011;25426;53.478;10.190;2023-02-15T09:35:12;85.07;;;30.37;;
39740;SDS011;25426;53.478;10.190;2023-02-15T09:37:43;57.40;;;26.80;;
39740;SDS011;25426;53.478;10.190;2023-02-15T09:40:15;61.85;;;26.25;;
39740;SDS011;25426;53.478;10.190;2023-02-15T09:46:27;56.58;;;29.30;;
39740;SDS011;25426;53.478;10.190;2023-02-15T09:49:51;86.15;;;28.63;;
39740;SDS011;25426;53.478;10.190;2023-02-15T09:56:39;84.82;;;29.00;;
39740;SDS011;25426;53.478;10.190;2023-02-15T09:59:36;91.00;;;30.23;;
39740;SDS011;25426;53.478;10.190;2023-02-15T10:05:42;44.88;;;25.33;;
39740;SDS011;25426;53.478;10.190;2023-02-15T10:18:36;33.55;;;22.63;;
39740;SDS011;25426;53.478;10.190;2023-02-15T10:27:53;44.60;;;23.42;;
39740;SDS011;25426;53.478;10.190;2023-02-15T10:30:32;56.78;;;24.90;;
39740;SDS011;25426;53.478;10.190;2023-02-15T10:33:26;35.50;;;26.50;;
39740;SDS011;25426;53.478;10.190;2023-02-15T10:36:19;32.53;;;25.92;;
39740;SDS011;25426;53.478;10.190;2023-02-15T10:39:26;49.45;;;25.20;;
39740;SDS011;25426;53.478;10.190;2023-02-15T10:48:24;34.47;;;24.65;;
39740;SDS011;25426;53.478;10.190;2023-02-15T10:55:13;35.42;;;26.80;;
39740;SDS011;25426;53.478;10.190;2023-02-15T10:58:24;40.65;;;28.10;;
39740;SDS011;25426;53.478;10.190;2023-02-15T11:01:44;38.90;;;27.38;;
39740;SDS011;25426;53.478;10.190;2023-02-15T11:05:02;55.72;;;29.85;;
39740;SDS011;25426;53.478;10.190;2023-02-15T11:07:57;49.88;;;29.25;;
39740;SDS011;25426;53.478;10.190;2023-02-15T11:10:47;48.85;;;31.27;;
39740;SDS011;25426;53.478;10.190;2023-02-15T11:13:25;37.47;;;28.55;;
39740;SDS011;25426;53.478;10.190;2023-02-15T11:16:06;41.20;;;28.95;;
39740;SDS011;25426;53.478;10.190;2023-02-15T11:18:58;39.60;;;30.38;;
39740;SDS011;25426;53.478;10.190;2023-02-15T11:21:54;39.58;;;29.15;;
39740;SDS011;25426;53.478;10.190;2023-02-15T11:24:30;40.28;;;30.48;;
39740;SDS011;25426;53.478;10.190;2023-02-15T11:30:04;38.67;;;30.48;;
39740;SDS011;25426;53.478;10.190;2023-02-15T11:32:50;40.88;;;30.85;;
39740;SDS011;25426;53.478;10.190;2023-02-15T11:35:32;43.00;;;30.98;;
39740;SDS011;25426;53.478;10.190;2023-02-15T11:38:14;41.90;;;31.52;;
39740;SDS011;25426;53.478;10.190;2023-02-15T11:40:48;46.97;;;35.10;;
39740;SDS011;25426;53.478;10.190;2023-02-15T11:43:31;48.90;;;36.67;;
39740;SDS011;25426;53.478;10.190;2023-02-15T11:46:13;51.67;;;37.63;;
39740;SDS011;25426;53.478;10.190;2023-02-15T11:48:44;60.33;;;41.45;;
39740;SDS011;25426;53.478;10.190;2023-02-15T11:51:16;52.08;;;39.20;;
39740;SDS011;25426;53.478;10.190;2023-02-15T11:53:50;45.65;;;35.47;;
39740;SDS011;25426;53.478;10.190;2023-02-15T11:56:22;39.13;;;32.05;;
39740;SDS011;25426;53.478;10.190;2023-02-15T11:59:03;37.78;;;30.98;;
39740;SDS011;25426;53.478;10.190;2023-02-15T12:01:42;33.53;;;27.92;;
39740;SDS011;25426;53.478;10.190;2023-02-15T12:06:59;33.85;;;29.20;;
39740;SDS011;25426;53.478;10.190;2023-02-15T12:13:14;34.15;;;29.02;;
39740;SDS011;25426;53.478;10.190;2023-02-15T12:15:50;36.97;;;29.40;;
39740;SDS011;25426;53.478;10.190;2023-02-15T12:18:31;34.97;;;31.20;;
39740;SDS011;25426;53.478;10.190;2023-02-15T12:21:15;33.50;;;29.80;;
39740;SDS011;25426;53.478;10.190;2023-02-15T12:23:56;33.65;;;29.15;;
39740;SDS011;25426;53.478;10.190;2023-02-15T12:26:58;30.05;;;25.25;;
39740;SDS011;25426;53.478;10.190;2023-02-15T12:29:35;30.27;;;25.73;;
39740;SDS011;25426;53.478;10.190;2023-02-15T12:32:17;31.52;;;26.83;;
39740;SDS011;25426;53.478;10.190;2023-02-15T12:35:08;32.38;;;26.73;;
39740;SDS011;25426;53.478;10.190;2023-02-15T12:38:00;33.80;;;27.08;;
39740;SDS011;25426;53.478;10.190;2023-02-15T12:40:39;31.23;;;26.83;;
39740;SDS011;25426;53.478;10.190;2023-02-15T12:46:22;32.47;;;27.80;;
39740;SDS011;25426;53.478;10.190;2023-02-15T12:51:51;30.25;;;26.75;;
39740;SDS011;25426;53.478;10.190;2023-02-15T12:59:58;33.08;;;28.23;;
39740;SDS011;25426;53.478;10.190;2023-02-15T13:02:55;40.92;;;28.67;;
39740;SDS011;25426;53.478;10.190;2023-02-15T13:05:33;30.92;;;26.17;;
39740;SDS011;25426;53.478;10.190;2023-02-15T13:08:16;36.40;;;27.20;;
39740;SDS011;25426;53.478;10.190;2023-02-15T13:10:59;38.60;;;28.25;;
39740;SDS011;25426;53.478;10.190;2023-02-15T13:13:55;37.22;;;28.40;;
39740;SDS011;25426;53.478;10.190;2023-02-15T13:16:53;34.10;;;28.35;;
39740;SDS011;25426;53.478;10.190;2023-02-15T13:19:31;37.17;;;30.95;;
39740;SDS011;25426;53.478;10.190;2023-02-15T13:22:17;37.78;;;30.02;;
39740;SDS011;25426;53.478;10.190;2023-02-15T13:24:53;36.33;;;28.50;;
39740;SDS011;25426;53.478;10.190;2023-02-15T13:27:35;31.92;;;28.13;;
39740;SDS011;25426;53.478;10.190;2023-02-15T13:30:55;32.75;;;26.60;;
39740;SDS011;25426;53.478;10.190;2023-02-15T13:33:14;33.22;;;27.80;;
39740;SDS011;25426;53.478;10.190;2023-02-15T13:36:12;32.58;;;27.38;;
39740;SDS011;25426;53.478;10.190;2023-02-15T13:45:39;35.05;;;29.20;;
39740;SDS011;25426;53.478;10.190;2023-02-15T13:55:16;32.63;;;28.48;;
39740;SDS011;25426;53.478;10.190;2023-02-15T14:01:26;33.65;;;28.63;;
39740;SDS011;25426;53.478;10.190;2023-02-15T14:07:30;33.78;;;27.52;;
39740;SDS011;25426;53.478;10.190;2023-02-15T14:10:43;36.22;;;29.83;;
39740;SDS011;25426;53.478;10.190;2023-02-15T14:16:52;38.40;;;30.20;;
39740;SDS011;25426;53.478;10.190;2023-02-15T14:19:46;36.97;;;30.15;;
39740;SDS011;25426;53.478;10.190;2023-02-15T14:22:35;36.97;;;30.00;;
39740;SDS011;25426;53.478;10.190;2023-02-15T14:25:35;36.22;;;29.00;;
39740;SDS011;25426;53.478;10.190;2023-02-15T14:28:16;34.97;;;28.85;;
39740;SDS011;25426;53.478;10.190;2023-02-15T14:31:04;32.15;;;27.30;;
39740;SDS011;25426;53.478;10.190;2023-02-15T14:33:39;37.30;;;28.35;;
39740;SDS011;25426;53.478;10.190;2023-02-15T14:36:18;34.38;;;28.15;;
39740;SDS011;25426;53.478;10.190;2023-02-15T14:42:05;31.70;;;27.00;;
39740;SDS011;25426;53.478;10.190;2023-02-15T14:47:42;34.08;;;26.77;;
39740;SDS011;25426;53.478;10.190;2023-02-15T14:56:19;32.67;;;26.17;;
39740;SDS011;25426;53.478;10.190;2023-02-15T15:01:26;37.13;;;29.27;;
39740;SDS011;25426;53.478;10.190;2023-02-15T15:04:08;36.42;;;30.05;;
39740;SDS011;25426;53.478;10.190;2023-02-15T15:06:43;35.17;;;29.75;;
39740;SDS011;25426;53.478;10.190;2023-02-15T15:09:27;46.20;;;31.60;;
39740;SDS011;25426;53.478;10.190;2023-02-15T15:12:12;37.93;;;31.20;;
39740;SDS011;25426;53.478;10.190;2023-02-15T15:14:55;37.45;;;29.13;;
39740;SDS011;25426;53.478;10.190;2023-02-15T15:20:37;36.55;;;29.60;;
39740;SDS011;25426;53.478;10.190;2023-02-15T15:25:49;36.67;;;30.30;;
39740;SDS011;25426;53.478;10.190;2023-02-15T15:37:26;36.55;;;28.95;;
39740;SDS011;25426;53.478;10.190;2023-02-15T15:47:06;40.05;;;30.58;;
39740;SDS011;25426;53.478;10.190;2023-02-15T15:50:13;33.95;;;28.08;;
39740;SDS011;25426;53.478;10.190;2023-02-15T15:52:50;37.05;;;29.67;;
39740;SDS011;25426;53.478;10.190;2023-02-15T15:55:26;41.45;;;30.25;;
39740;SDS011;25426;53.478;10.190;2023-02-15T15:58:02;37.22;;;30.70;;
39740;SDS011;25426;53.478;10.190;2023-02-15T16:01:10;38.22;;;30.88;;
39740;SDS011;25426;53.478;10.190;2023-02-15T16:03:48;37.47;;;28.92;;
39740;SDS011;25426;53.478;10.190;2023-02-15T16:06:28;41.80;;;29.17;;
39740;SDS011;25426;53.478;10.190;2023-02-15T16:09:24;41.45;;;30.92;;
39740;SDS011;25426;53.478;10.190;2023-02-15T16:11:57;39.92;;;30.85;;
39740;SDS011;25426;53.478;10.190;2023-02-15T16:14:32;43.03;;;31.27;;
39740;SDS011;25426;53.478;10.190;2023-02-15T16:17:07;42.50;;;32.47;;
39740;SDS011;25426;53.478;10.190;2023-02-15T16:19:57;40.67;;;28.75;;
39740;SDS011;25426;53.478;10.190;2023-02-15T16:22:45;37.80;;;29.58;;
39740;SDS011;25426;53.478;10.190;2023-02-15T16:28:27;46.30;;;33.42;;
39740;SDS011;25426;53.478;10.190;2023-02-15T16:31:04;45.15;;;32.40;;
39740;SDS011;25426;53.478;10.190;2023-02-15T16:33:44;44.40;;;33.55;;
39740;SDS011;25426;53.478;10.190;2023-02-15T16:36:26;46.65;;;33.08;;
39740;SDS011;25426;53.478;10.190;2023-02-15T16:41:35;48.55;;;34.60;;
39740;SDS011;25426;53.478;10.190;2023-02-15T16:44:12;46.53;;;32.58;;
39740;SDS011;25426;53.478;10.190;2023-02-15T16:46:49;46.45;;;32.88;;
39740;SDS011;25426;53.478;10.190;2023-02-15T16:49:23;51.28;;;36.33;;
39740;SDS011;25426;53.478;10.190;2023-02-15T16:52:04;52.25;;;36.95;;
39740;SDS011;25426;53.478;10.190;2023-02-15T16:54:36;60.35;;;41.83;;
39740;SDS011;25426;53.478;10.190;2023-02-15T16:57:18;130.45;;;83.68;;
39740;SDS011;25426;53.478;10.190;2023-02-15T16:59:55;54.22;;;37.28;;
39740;SDS011;25426;53.478;10.190;2023-02-15T17:02:35;68.30;;;45.25;;
39740;SDS011;25426;53.478;10.190;2023-02-15T17:07:40;60.90;;;39.70;;
39740;SDS011;25426;53.478;10.190;2023-02-15T17:10:39;54.40;;;37.25;;
39740;SDS011;25426;53.478;10.190;2023-02-15T17:13:13;51.80;;;34.33;;
39740;SDS011;25426;53.478;10.190;2023-02-15T17:16:28;46.28;;;32.67;;
39740;SDS011;25426;53.478;10.190;2023-02-15T17:18:56;48.65;;;34.20;;
39740;SDS011;25426;53.478;10.190;2023-02-15T17:21:32;49.05;;;34.17;;
39740;SDS011;25426;53.478;10.190;2023-02-15T17:24:15;46.42;;;32.80;;